sensor_id;sensor_type;location;lat;lon;timestamp;temperature;humidity
67750;DHT22;54550;48.838;8.828;2023-06-10T00:01:00;17.50;94.20
67750;DHT22;54550;48.838;8.828;2023-06-10T00:03:26;17.30;94.60
67750;DHT22;54550;48.838;8.828;2023-06-10T00:05:52;17.00;95.40
67750;DHT22;54550;48.838;8.828;2023-06-10T00:08:17;16.70;96.20
67750;DHT22;54550;48.838;8.828;2023-06-10T00:10:44;16.50;96.90
67750;DHT22;54550;48.838;8.828;2023-06-10T00:13:10;16.40;97.60
67750;DHT22;54550;48.838;8.828;2023-06-10T00:15:36;16.30;98.10
67750;DHT22;54550;48.838;8.828;2023-06-10T00:18:03;16.30;98.60
67750;DHT22;54550;48.838;8.828;2023-06-10T00:20:29;16.30;98.90
67750;DHT22;54550;48.838;8.828;2023-06-10T00:22:56;16.30;99.50
67750;DHT22;54550;48.838;8.828;2023-06-10T00:25:22;16.20;99.90
67750;DHT22;54550;48.838;8.828;2023-06-10T00:27:48;16.00;99.90
67750;DHT22;54550;48.838;8.828;2023-06-10T00:30:13;15.80;99.90
67750;DHT22;54550;48.838;8.828;2023-06-10T00:32:39;15.70;99.90
67750;DHT22;54550;48.838;8.828;2023-06-10T00:35:04;15.50;99.90
67750;DHT22;54550;48.838;8.828;2023-06-10T00:37:31;15.40;99.90
67750;DHT22;54550;48.838;8.828;2023-06-10T00:39:57;15.30;99.90
67750;DHT22;54550;48.838;8.828;2023-06-10T00:42:23;15.10;99.90
67750;DHT22;54550;48.838;8.828;2023-06-10T00:44:50;15.00;99.90
67750;DHT22;54550;48.838;8.828;2023-06-10T00:47:16;14.80;99.90
67750;DHT22;54550;48.838;8.828;2023-06-10T00:49:43;14.70;99.90
67750;DHT22;54550;48.838;8.828;2023-06-10T00:52:10;14.50;99.90
67750;DHT22;54550;48.838;8.828;2023-06-10T00:54:37;14.40;99.90
67750;DHT22;54550;48.838;8.828;2023-06-10T00:57:04;14.30;99.90
67750;DHT22;54550;48.838;8.828;2023-06-10T00:59:31;14.20;99.90
67750;DHT22;54550;48.838;8.828;2023-06-10T01:01:57;14.20;99.90
67750;DHT22;54550;48.838;8.828;2023-06-10T01:04:23;14.10;99.90
67750;DHT22;54550;48.838;8.828;2023-06-10T01:12:12;13.90;99.90
67750;DHT22;54550;48.838;8.828;2023-06-10T01:14:40;13.90;99.90
67750;DHT22;54550;48.838;8.828;2023-06-10T01:17:10;13.90;99.90
67750;DHT22;54550;48.838;8.828;2023-06-10T01:19:36;13.90;99.90
67750;DHT22;54550;48.838;8.828;2023-06-10T01:22:03;13.80;99.90
67750;DHT22;54550;48.838;8.828;2023-06-10T01:24:30;13.70;99.90
67750;DHT22;54550;48.838;8.828;2023-06-10T01:27:01;13.70;99.90
67750;DHT22;54550;48.838;8.828;2023-06-10T01:29:45;13.70;99.90
67750;DHT22;54550;48.838;8.828;2023-06-10T01:32:27;13.70;99.90
67750;DHT22;54550;48.838;8.828;2023-06-10T01:34:54;13.80;99.90
67750;DHT22;54550;48.838;8.828;2023-06-10T01:37:23;13.80;99.90
67750;DHT22;54550;48.838;8.828;2023-06-10T01:39:51;13.80;99.90
67750;DHT22;54550;48.838;8.828;2023-06-10T01:42:17;13.70;99.90
67750;DHT22;54550;48.838;8.828;2023-06-10T01:44:43;13.70;99.90
67750;DHT22;54550;48.838;8.828;2023-06-10T01:47:09;13.70;99.90
67750;DHT22;54550;48.838;8.828;2023-06-10T01:49:35;13.70;99.90
67750;DHT22;54550;48.838;8.828;2023-06-10T01:52:00;13.70;99.90
67750;DHT22;54550;48.838;8.828;2023-06-10T01:54:26;13.60;99.90
67750;DHT22;54550;48.838;8.828;2023-06-10T01:56:52;13.60;99.90
67750;DHT22;54550;48.838;8.828;2023-06-10T01:59:17;13.50;99.90
67750;DHT22;54550;48.838;8.828;2023-06-10T02:01:43;13.50;99.90
67750;DHT22;54550;48.838;8.828;2023-06-10T02:04:08;13.40;99.90
67750;DHT22;54550;48.838;8.828;2023-06-10T02:06:33;13.30;99.90
67750;DHT22;54550;48.838;8.828;2023-06-10T02:09:00;13.20;99.90
67750;DHT22;54550;48.838;8.828;2023-06-10T02:11:26;13.10;99.90
67750;DHT22;54550;48.838;8.828;2023-06-10T02:13:52;13.00;99.90
67750;DHT22;54550;48.838;8.828;2023-06-10T02:16:17;12.90;99.90
67750;DHT22;54550;48.838;8.828;2023-06-10T02:18:44;12.80;99.90
67750;DHT22;54550;48.838;8.828;2023-06-10T02:21:09;12.70;99.90
67750;DHT22;54550;48.838;8.828;2023-06-10T02:23:35;12.60;99.90
67750;DHT22;54550;48.838;8.828;2023-06-10T02:26:01;12.60;99.90
67750;DHT22;54550;48.838;8.828;2023-06-10T02:28:27;12.60;99.90
67750;DHT22;54550;48.838;8.828;2023-06-10T02:30:53;12.60;99.90
67750;DHT22;54550;48.838;8.828;2023-06-10T02:33:18;12.60;99.90
67750;DHT22;54550;48.838;8.828;2023-06-10T02:35:45;12.70;99.90
67750;DHT22;54550;48.838;8.828;2023-06-10T02:38:11;12.70;99.90
67750;DHT22;54550;48.838;8.828;2023-06-10T02:40:36;12.80;99.90
67750;DHT22;54550;48.838;8.828;2023-06-10T02:43:02;12.80;99.90
67750;DHT22;54550;48.838;8.828;2023-06-10T02:45:27;12.90;99.90
67750;DHT22;54550;48.838;8.828;2023-06-10T02:47:53;12.90;99.90
67750;DHT22;54550;48.838;8.828;2023-06-10T02:50:18;12.90;99.90
67750;DHT22;54550;48.838;8.828;2023-06-10T02:52:44;12.90;99.90
67750;DHT22;54550;48.838;8.828;2023-06-10T02:55:10;13.10;99.90
67750;DHT22;54550;48.838;8.828;2023-06-10T02:57:35;13.00;99.90
67750;DHT22;54550;48.838;8.828;2023-06-10T03:00:01;12.90;99.90
67750;DHT22;54550;48.838;8.828;2023-06-10T03:02:30;13.00;99.90
67750;DHT22;54550;48.838;8.828;2023-06-10T03:04:57;13.00;99.90
67750;DHT22;54550;48.838;8.828;2023-06-10T03:07:23;13.00;99.90
67750;DHT22;54550;48.838;8.828;2023-06-10T03:09:49;12.80;99.90
67750;DHT22;54550;48.838;8.828;2023-06-10T03:12:15;12.80;99.90
67750;DHT22;54550;48.838;8.828;2023-06-10T03:14:41;12.70;99.90
67750;DHT22;54550;48.838;8.828;2023-06-10T03:17:07;12.70;99.90
67750;DHT22;54550;48.838;8.828;2023-06-10T03:19:34;12.70;99.90
67750;DHT22;54550;48.838;8.828;2023-06-10T03:22:10;12.70;99.90
67750;DHT22;54550;48.838;8.828;2023-06-10T03:24:37;12.70;99.90
67750;DHT22;54550;48.838;8.828;2023-06-10T03:27:12;12.80;99.90
67750;DHT22;54550;48.838;8.828;2023-06-10T03:29:38;12.80;99.90
67750;DHT22;54550;48.838;8.828;2023-06-10T03:32:05;12.80;99.90
67750;DHT22;54550;48.838;8.828;2023-06-10T03:34:30;12.80;99.90
67750;DHT22;54550;48.838;8.828;2023-06-10T03:36:56;12.80;99.90
67750;DHT22;54550;48.838;8.828;2023-06-10T03:39:22;12.80;99.90
67750;DHT22;54550;48.838;8.828;2023-06-10T03:41:51;12.90;99.90
67750;DHT22;54550;48.838;8.828;2023-06-10T03:44:17;13.20;99.90
67750;DHT22;54550;48.838;8.828;2023-06-10T03:46:42;13.40;99.90
67750;DHT22;54550;48.838;8.828;2023-06-10T03:49:08;13.70;99.90
67750;DHT22;54550;48.838;8.828;2023-06-10T03:51:35;14.00;99.90
67750;DHT22;54550;48.838;8.828;2023-06-10T03:54:01;14.40;99.90
67750;DHT22;54550;48.838;8.828;2023-06-10T03:56:26;14.80;99.90
67750;DHT22;54550;48.838;8.828;2023-06-10T03:58:52;15.10;99.90
67750;DHT22;54550;48.838;8.828;2023-06-10T04:01:17;15.40;99.90
67750;DHT22;54550;48.838;8.828;2023-06-10T04:03:47;15.60;99.90
67750;DHT22;54550;48.838;8.828;2023-06-10T04:06:14;15.90;99.90
67750;DHT22;54550;48.838;8.828;2023-06-10T04:08:41;16.20;99.90
67750;DHT22;54550;48.838;8.828;2023-06-10T04:11:07;16.60;99.90
67750;DHT22;54550;48.838;8.828;2023-06-10T04:13:32;16.90;99.90
67750;DHT22;54550;48.838;8.828;2023-06-10T04:15:58;17.20;99.90
67750;DHT22;54550;48.838;8.828;2023-06-10T04:18:23;17.30;99.90
67750;DHT22;54550;48.838;8.828;2023-06-10T04:20:49;17.50;99.90
67750;DHT22;54550;48.838;8.828;2023-06-10T04:23:14;17.70;99.90
67750;DHT22;54550;48.838;8.828;2023-06-10T04:25:40;18.00;99.90
67750;DHT22;54550;48.838;8.828;2023-06-10T04:28:06;18.20;99.90
67750;DHT22;54550;48.838;8.828;2023-06-10T04:30:31;18.40;99.90
67750;DHT22;54550;48.838;8.828;2023-06-10T04:32:57;18.60;99.90
67750;DHT22;54550;48.838;8.828;2023-06-10T04:35:23;18.80;99.90
67750;DHT22;54550;48.838;8.828;2023-06-10T04:37:48;19.00;99.90
67750;DHT22;54550;48.838;8.828;2023-06-10T04:40:14;19.20;99.90
67750;DHT22;54550;48.838;8.828;2023-06-10T04:42:41;19.20;99.90
67750;DHT22;54550;48.838;8.828;2023-06-10T04:45:07;19.50;99.90
67750;DHT22;54550;48.838;8.828;2023-06-10T04:47:33;19.50;99.90
67750;DHT22;54550;48.838;8.828;2023-06-10T04:49:59;19.80;99.90
67750;DHT22;54550;48.838;8.828;2023-06-10T04:52:25;19.70;99.90
67750;DHT22;54550;48.838;8.828;2023-06-10T04:54:51;19.90;99.90
67750;DHT22;54550;48.838;8.828;2023-06-10T04:57:16;20.00;99.90
67750;DHT22;54550;48.838;8.828;2023-06-10T04:59:42;20.20;99.90
67750;DHT22;54550;48.838;8.828;2023-06-10T05:02:07;20.40;99.90
67750;DHT22;54550;48.838;8.828;2023-06-10T05:04:33;20.70;99.90
67750;DHT22;54550;48.838;8.828;2023-06-10T05:06:58;21.00;99.90
67750;DHT22;54550;48.838;8.828;2023-06-10T05:09:24;21.20;99.90
67750;DHT22;54550;48.838;8.828;2023-06-10T05:11:51;21.10;99.90
67750;DHT22;54550;48.838;8.828;2023-06-10T05:14:18;21.00;99.90
67750;DHT22;54550;48.838;8.828;2023-06-10T05:16:44;21.00;99.90
67750;DHT22;54550;48.838;8.828;2023-06-10T05:19:10;21.30;99.90
67750;DHT22;54550;48.838;8.828;2023-06-10T05:21:35;21.50;99.90
67750;DHT22;54550;48.838;8.828;2023-06-10T05:24:01;21.50;99.90
67750;DHT22;54550;48.838;8.828;2023-06-10T05:26:27;21.40;99.90
67750;DHT22;54550;48.838;8.828;2023-06-10T05:28:54;21.70;99.90
67750;DHT22;54550;48.838;8.828;2023-06-10T05:31:19;21.60;99.90
67750;DHT22;54550;48.838;8.828;2023-06-10T05:33:45;21.70;99.90
67750;DHT22;54550;48.838;8.828;2023-06-10T05:36:10;21.50;99.90
67750;DHT22;54550;48.838;8.828;2023-06-10T05:38:36;21.80;99.90
67750;DHT22;54550;48.838;8.828;2023-06-10T05:41:01;22.00;99.90
67750;DHT22;54550;48.838;8.828;2023-06-10T05:43:27;21.70;99.90
67750;DHT22;54550;48.838;8.828;2023-06-10T05:45:53;21.70;99.90
67750;DHT22;54550;48.838;8.828;2023-06-10T05:48:18;21.90;99.90
67750;DHT22;54550;48.838;8.828;2023-06-10T05:50:45;22.00;99.90
67750;DHT22;54550;48.838;8.828;2023-06-10T05:53:14;22.30;99.90
67750;DHT22;54550;48.838;8.828;2023-06-10T05:55:44;22.50;99.90
67750;DHT22;54550;48.838;8.828;2023-06-10T05:58:10;22.60;99.90
67750;DHT22;54550;48.838;8.828;2023-06-10T06:00:40;22.50;99.90
67750;DHT22;54550;48.838;8.828;2023-06-10T06:03:07;22.70;99.70
67750;DHT22;54550;48.838;8.828;2023-06-10T06:05:33;22.90;99.60
67750;DHT22;54550;48.838;8.828;2023-06-10T06:08:09;23.00;99.60
67750;DHT22;54550;48.838;8.828;2023-06-10T06:10:35;23.40;99.60
67750;DHT22;54550;48.838;8.828;2023-06-10T06:13:01;23.50;99.70
67750;DHT22;54550;48.838;8.828;2023-06-10T06:15:27;24.00;99.10
67750;DHT22;54550;48.838;8.828;2023-06-10T06:17:52;24.00;99.10
67750;DHT22;54550;48.838;8.828;2023-06-10T06:20:19;24.30;98.80
67750;DHT22;54550;48.838;8.828;2023-06-10T06:22:44;24.00;98.20
67750;DHT22;54550;48.838;8.828;2023-06-10T06:25:10;24.10;98.80
67750;DHT22;54550;48.838;8.828;2023-06-10T06:27:35;24.20;99.30
67750;DHT22;54550;48.838;8.828;2023-06-10T06:30:01;24.20;99.30
67750;DHT22;54550;48.838;8.828;2023-06-10T06:32:26;24.40;98.90
67750;DHT22;54550;48.838;8.828;2023-06-10T06:34:53;24.50;99.00
67750;DHT22;54550;48.838;8.828;2023-06-10T06:37:25;24.70;98.60
67750;DHT22;54550;48.838;8.828;2023-06-10T06:39:51;24.80;98.60
67750;DHT22;54550;48.838;8.828;2023-06-10T06:42:17;25.30;97.40
67750;DHT22;54550;48.838;8.828;2023-06-10T06:44:43;25.70;95.80
67750;DHT22;54550;48.838;8.828;2023-06-10T06:47:08;25.70;95.30
67750;DHT22;54550;48.838;8.828;2023-06-10T06:49:33;25.50;95.30
67750;DHT22;54550;48.838;8.828;2023-06-10T06:51:59;25.40;95.50
67750;DHT22;54550;48.838;8.828;2023-06-10T06:54:24;24.90;95.70
67750;DHT22;54550;48.838;8.828;2023-06-10T06:56:50;24.50;96.40
67750;DHT22;54550;48.838;8.828;2023-06-10T06:59:15;24.60;96.60
67750;DHT22;54550;48.838;8.828;2023-06-10T07:01:42;25.00;95.90
67750;DHT22;54550;48.838;8.828;2023-06-10T07:04:08;25.30;95.60
67750;DHT22;54550;48.838;8.828;2023-06-10T07:06:33;25.70;95.40
67750;DHT22;54550;48.838;8.828;2023-06-10T07:08:58;25.60;96.00
67750;DHT22;54550;48.838;8.828;2023-06-10T07:11:24;24.70;96.10
67750;DHT22;54550;48.838;8.828;2023-06-10T07:13:50;25.00;95.60
67750;DHT22;54550;48.838;8.828;2023-06-10T07:16:16;25.00;96.10
67750;DHT22;54550;48.838;8.828;2023-06-10T07:18:41;25.00;95.40
67750;DHT22;54550;48.838;8.828;2023-06-10T07:21:07;25.00;95.40
67750;DHT22;54550;48.838;8.828;2023-06-10T07:23:32;25.00;96.30
67750;DHT22;54550;48.838;8.828;2023-06-10T07:25:58;25.00;95.50
67750;DHT22;54550;48.838;8.828;2023-06-10T07:28:23;25.40;95.50
67750;DHT22;54550;48.838;8.828;2023-06-10T07:30:49;25.40;94.90
67750;DHT22;54550;48.838;8.828;2023-06-10T07:33:14;25.30;94.60
67750;DHT22;54550;48.838;8.828;2023-06-10T07:35:40;25.30;94.60
67750;DHT22;54550;48.838;8.828;2023-06-10T07:38:08;24.70;94.70
67750;DHT22;54550;48.838;8.828;2023-06-10T07:40:33;25.20;94.40
67750;DHT22;54550;48.838;8.828;2023-06-10T07:42:59;25.10;94.50
67750;DHT22;54550;48.838;8.828;2023-06-10T07:45:24;24.90;94.90
67750;DHT22;54550;48.838;8.828;2023-06-10T07:47:50;25.20;94.70
67750;DHT22;54550;48.838;8.828;2023-06-10T07:50:16;25.40;94.80
67750;DHT22;54550;48.838;8.828;2023-06-10T07:52:41;25.30;94.60
67750;DHT22;54550;48.838;8.828;2023-06-10T07:55:07;25.20;95.60
67750;DHT22;54550;48.838;8.828;2023-06-10T07:57:32;25.30;95.50
67750;DHT22;54550;48.838;8.828;2023-06-10T08:00:02;26.30;94.10
67750;DHT22;54550;48.838;8.828;2023-06-10T08:02:29;26.90;92.80
67750;DHT22;54550;48.838;8.828;2023-06-10T08:04:55;26.60;92.80
67750;DHT22;54550;48.838;8.828;2023-06-10T08:07:20;26.50;94.20
67750;DHT22;54550;48.838;8.828;2023-06-10T08:09:47;26.20;92.30
67750;DHT22;54550;48.838;8.828;2023-06-10T08:12:13;25.90;93.40
67750;DHT22;54550;48.838;8.828;2023-06-10T08:14:39;26.20;93.50
67750;DHT22;54550;48.838;8.828;2023-06-10T08:17:04;26.20;93.80
67750;DHT22;54550;48.838;8.828;2023-06-10T08:19:31;25.80;93.50
67750;DHT22;54550;48.838;8.828;2023-06-10T08:21:56;26.00;94.20
67750;DHT22;54550;48.838;8.828;2023-06-10T08:24:22;26.20;93.60
67750;DHT22;54550;48.838;8.828;2023-06-10T08:26:47;26.40;93.70
67750;DHT22;54550;48.838;8.828;2023-06-10T08:29:13;26.20;93.50
67750;DHT22;54550;48.838;8.828;2023-06-10T08:31:42;26.40;93.90
67750;DHT22;54550;48.838;8.828;2023-06-10T08:34:08;26.70;99.00
67750;DHT22;54550;48.838;8.828;2023-06-10T08:36:33;26.60;95.90
67750;DHT22;54550;48.838;8.828;2023-06-10T08:38:59;26.30;92.40
67750;DHT22;54550;48.838;8.828;2023-06-10T08:41:25;26.30;92.20
67750;DHT22;54550;48.838;8.828;2023-06-10T08:46:18;26.30;92.30
67750;DHT22;54550;48.838;8.828;2023-06-10T08:48:44;26.40;92.30
67750;DHT22;54550;48.838;8.828;2023-06-10T08:51:10;26.60;91.60
67750;DHT22;54550;48.838;8.828;2023-06-10T08:53:38;26.20;92.50
67750;DHT22;54550;48.838;8.828;2023-06-10T08:56:07;26.50;92.50
67750;DHT22;54550;48.838;8.828;2023-06-10T08:58:34;26.60;91.50
67750;DHT22;54550;48.838;8.828;2023-06-10T09:01:07;26.40;91.70
67750;DHT22;54550;48.838;8.828;2023-06-10T09:03:36;26.80;91.30
67750;DHT22;54550;48.838;8.828;2023-06-10T09:06:03;26.60;91.20
67750;DHT22;54550;48.838;8.828;2023-06-10T09:08:30;26.50;91.10
67750;DHT22;54550;48.838;8.828;2023-06-10T09:10:55;26.60;91.00
67750;DHT22;54550;48.838;8.828;2023-06-10T09:13:21;26.70;91.50
67750;DHT22;54550;48.838;8.828;2023-06-10T09:15:48;27.10;90.60
67750;DHT22;54550;48.838;8.828;2023-06-10T09:18:14;27.20;91.30
67750;DHT22;54550;48.838;8.828;2023-06-10T09:20:41;27.40;90.80
67750;DHT22;54550;48.838;8.828;2023-06-10T09:23:07;27.90;90.80
67750;DHT22;54550;48.838;8.828;2023-06-10T09:25:36;28.30;90.40
67750;DHT22;54550;48.838;8.828;2023-06-10T09:28:02;28.10;90.30
67750;DHT22;54550;48.838;8.828;2023-06-10T09:30:29;28.30;90.30
67750;DHT22;54550;48.838;8.828;2023-06-10T09:32:55;28.10;90.90
67750;DHT22;54550;48.838;8.828;2023-06-10T09:35:24;28.60;88.70
67750;DHT22;54550;48.838;8.828;2023-06-10T09:37:51;28.60;88.60
67750;DHT22;54550;48.838;8.828;2023-06-10T09:40:17;28.90;88.90
67750;DHT22;54550;48.838;8.828;2023-06-10T09:42:42;29.20;86.30
67750;DHT22;54550;48.838;8.828;2023-06-10T09:45:08;28.70;87.80
67750;DHT22;54550;48.838;8.828;2023-06-10T09:47:34;28.10;87.50
67750;DHT22;54550;48.838;8.828;2023-06-10T09:49:59;27.90;89.00
67750;DHT22;54550;48.838;8.828;2023-06-10T09:52:27;27.60;89.20
67750;DHT22;54550;48.838;8.828;2023-06-10T09:54:54;27.70;90.00
67750;DHT22;54550;48.838;8.828;2023-06-10T09:57:20;27.80;88.70
67750;DHT22;54550;48.838;8.828;2023-06-10T09:59:46;28.20;88.50
67750;DHT22;54550;48.838;8.828;2023-06-10T10:02:15;28.10;88.20
67750;DHT22;54550;48.838;8.828;2023-06-10T10:04:41;28.40;89.30
67750;DHT22;54550;48.838;8.828;2023-06-10T10:07:07;28.90;87.60
67750;DHT22;54550;48.838;8.828;2023-06-10T10:09:35;28.70;88.40
67750;DHT22;54550;48.838;8.828;2023-06-10T10:12:01;28.70;87.60
67750;DHT22;54550;48.838;8.828;2023-06-10T10:14:28;28.20;90.20
67750;DHT22;54550;48.838;8.828;2023-06-10T10:16:55;28.20;89.10
67750;DHT22;54550;48.838;8.828;2023-06-10T10:19:25;27.80;90.00
67750;DHT22;54550;48.838;8.828;2023-06-10T10:21:54;27.20;91.20
67750;DHT22;54550;48.838;8.828;2023-06-10T10:24:21;27.70;90.40
67750;DHT22;54550;48.838;8.828;2023-06-10T10:26:49;27.90;90.40
67750;DHT22;54550;48.838;8.828;2023-06-10T10:31:50;28.10;90.10
67750;DHT22;54550;48.838;8.828;2023-06-10T10:34:16;28.50;90.40
67750;DHT22;54550;48.838;8.828;2023-06-10T10:36:44;28.30;89.40
67750;DHT22;54550;48.838;8.828;2023-06-10T10:39:10;28.10;89.80
67750;DHT22;54550;48.838;8.828;2023-06-10T10:41:37;28.20;88.60
67750;DHT22;54550;48.838;8.828;2023-06-10T10:44:04;29.30;87.30
67750;DHT22;54550;48.838;8.828;2023-06-10T10:46:42;29.10;83.00
67750;DHT22;54550;48.838;8.828;2023-06-10T10:49:08;29.60;80.90
67750;DHT22;54550;48.838;8.828;2023-06-10T10:51:34;30.40;81.00
67750;DHT22;54550;48.838;8.828;2023-06-10T10:54:10;30.50;80.20
67750;DHT22;54550;48.838;8.828;2023-06-10T10:56:36;30.90;79.90
67750;DHT22;54550;48.838;8.828;2023-06-10T10:59:05;31.20;79.80
67750;DHT22;54550;48.838;8.828;2023-06-10T11:01:40;31.50;78.10
67750;DHT22;54550;48.838;8.828;2023-06-10T11:04:07;30.30;77.60
67750;DHT22;54550;48.838;8.828;2023-06-10T11:06:32;29.20;80.40
67750;DHT22;54550;48.838;8.828;2023-06-10T11:08:58;28.60;81.40
67750;DHT22;54550;48.838;8.828;2023-06-10T11:11:26;29.20;82.10
67750;DHT22;54550;48.838;8.828;2023-06-10T11:16:27;31.00;77.90
67750;DHT22;54550;48.838;8.828;2023-06-10T11:18:53;31.40;76.70
67750;DHT22;54550;48.838;8.828;2023-06-10T11:21:19;32.20;76.20
67750;DHT22;54550;48.838;8.828;2023-06-10T11:23:44;32.80;77.50
67750;DHT22;54550;48.838;8.828;2023-06-10T11:33:53;30.80;78.80
67750;DHT22;54550;48.838;8.828;2023-06-10T11:36:19;29.50;82.00
67750;DHT22;54550;48.838;8.828;2023-06-10T11:38:44;28.70;82.20
67750;DHT22;54550;48.838;8.828;2023-06-10T11:41:10;28.70;84.30
67750;DHT22;54550;48.838;8.828;2023-06-10T11:43:36;29.40;84.00
67750;DHT22;54550;48.838;8.828;2023-06-10T11:46:02;29.30;84.90
67750;DHT22;54550;48.838;8.828;2023-06-10T11:48:27;29.10;87.10
67750;DHT22;54550;48.838;8.828;2023-06-10T11:50:56;28.30;87.50
67750;DHT22;54550;48.838;8.828;2023-06-10T11:53:22;27.90;90.90
67750;DHT22;54550;48.838;8.828;2023-06-10T11:55:48;29.00;90.60
67750;DHT22;54550;48.838;8.828;2023-06-10T11:58:21;29.90;90.40
67750;DHT22;54550;48.838;8.828;2023-06-10T12:00:47;30.80;87.80
67750;DHT22;54550;48.838;8.828;2023-06-10T12:03:13;32.30;81.40
67750;DHT22;54550;48.838;8.828;2023-06-10T12:05:38;32.50;79.50
67750;DHT22;54550;48.838;8.828;2023-06-10T12:08:10;31.20;83.10
67750;DHT22;54550;48.838;8.828;2023-06-10T12:10:42;30.00;89.00
67750;DHT22;54550;48.838;8.828;2023-06-10T12:13:08;29.50;89.10
67750;DHT22;54550;48.838;8.828;2023-06-10T12:15:34;29.10;89.80
67750;DHT22;54550;48.838;8.828;2023-06-10T12:18:00;28.50;89.90
67750;DHT22;54550;48.838;8.828;2023-06-10T12:20:26;27.80;91.40
67750;DHT22;54550;48.838;8.828;2023-06-10T12:22:53;27.60;91.80
67750;DHT22;54550;48.838;8.828;2023-06-10T12:25:23;28.80;90.10
67750;DHT22;54550;48.838;8.828;2023-06-10T12:27:50;29.20;90.70
67750;DHT22;54550;48.838;8.828;2023-06-10T12:30:18;29.40;90.20
67750;DHT22;54550;48.838;8.828;2023-06-10T12:32:45;30.40;89.40
67750;DHT22;54550;48.838;8.828;2023-06-10T12:35:11;30.70;87.10
67750;DHT22;54550;48.838;8.828;2023-06-10T12:37:40;31.00;87.10
67750;DHT22;54550;48.838;8.828;2023-06-10T12:40:06;31.70;82.20
67750;DHT22;54550;48.838;8.828;2023-06-10T12:42:33;32.40;79.70
67750;DHT22;54550;48.838;8.828;2023-06-10T12:45:01;33.10;81.60
67750;DHT22;54550;48.838;8.828;2023-06-10T12:47:34;33.50;81.80
67750;DHT22;54550;48.838;8.828;2023-06-10T12:50:04;33.70;80.70
67750;DHT22;54550;48.838;8.828;2023-06-10T12:52:30;33.40;81.80
67750;DHT22;54550;48.838;8.828;2023-06-10T12:54:55;31.80;81.10
67750;DHT22;54550;48.838;8.828;2023-06-10T12:57:21;30.50;83.10
67750;DHT22;54550;48.838;8.828;2023-06-10T12:59:47;30.30;83.30
67750;DHT22;54550;48.838;8.828;2023-06-10T13:02:20;31.20;84.20
67750;DHT22;54550;48.838;8.828;2023-06-10T13:04:47;32.10;84.50
67750;DHT22;54550;48.838;8.828;2023-06-10T13:07:13;31.20;84.70
67750;DHT22;54550;48.838;8.828;2023-06-10T13:09:38;30.40;87.00
67750;DHT22;54550;48.838;8.828;2023-06-10T13:12:04;30.60;87.10
67750;DHT22;54550;48.838;8.828;2023-06-10T13:14:31;30.10;87.20
67750;DHT22;54550;48.838;8.828;2023-06-10T13:16:56;30.30;83.40
67750;DHT22;54550;48.838;8.828;2023-06-10T13:19:22;31.50;81.10
67750;DHT22;54550;48.838;8.828;2023-06-10T13:21:47;32.70;79.20
67750;DHT22;54550;48.838;8.828;2023-06-10T13:24:13;32.90;75.70
67750;DHT22;54550;48.838;8.828;2023-06-10T13:26:38;32.20;76.20
67750;DHT22;54550;48.838;8.828;2023-06-10T13:29:04;30.10;78.90
67750;DHT22;54550;48.838;8.828;2023-06-10T13:31:30;29.90;81.30
67750;DHT22;54550;48.838;8.828;2023-06-10T13:33:55;30.40;79.50
67750;DHT22;54550;48.838;8.828;2023-06-10T13:36:21;30.10;78.90
67750;DHT22;54550;48.838;8.828;2023-06-10T13:38:46;29.40;81.80
67750;DHT22;54550;48.838;8.828;2023-06-10T13:41:13;30.00;81.30
67750;DHT22;54550;48.838;8.828;2023-06-10T13:43:38;31.20;79.50
67750;DHT22;54550;48.838;8.828;2023-06-10T13:46:04;32.00;77.70
67750;DHT22;54550;48.838;8.828;2023-06-10T13:48:30;33.00;76.80
67750;DHT22;54550;48.838;8.828;2023-06-10T13:50:56;33.20;78.30
67750;DHT22;54550;48.838;8.828;2023-06-10T13:53:21;33.90;81.10
67750;DHT22;54550;48.838;8.828;2023-06-10T13:55:47;34.40;79.20
67750;DHT22;54550;48.838;8.828;2023-06-10T13:58:12;34.00;75.60
67750;DHT22;54550;48.838;8.828;2023-06-10T14:00:38;34.60;73.80
67750;DHT22;54550;48.838;8.828;2023-06-10T14:03:04;35.00;71.00
67750;DHT22;54550;48.838;8.828;2023-06-10T14:05:29;34.40;69.30
67750;DHT22;54550;48.838;8.828;2023-06-10T14:07:55;33.10;69.50
67750;DHT22;54550;48.838;8.828;2023-06-10T14:10:21;31.70;72.50
67750;DHT22;54550;48.838;8.828;2023-06-10T14:12:46;29.90;77.20
67750;DHT22;54550;48.838;8.828;2023-06-10T14:15:12;28.90;78.10
67750;DHT22;54550;48.838;8.828;2023-06-10T14:17:37;30.00;78.40
67750;DHT22;54550;48.838;8.828;2023-06-10T14:20:03;31.40;75.10
67750;DHT22;54550;48.838;8.828;2023-06-10T14:22:29;33.10;72.10
67750;DHT22;54550;48.838;8.828;2023-06-10T14:24:55;33.70;70.10
67750;DHT22;54550;48.838;8.828;2023-06-10T14:27:20;34.10;69.20
67750;DHT22;54550;48.838;8.828;2023-06-10T14:29:46;34.30;69.10
67750;DHT22;54550;48.838;8.828;2023-06-10T14:32:11;34.40;68.60
67750;DHT22;54550;48.838;8.828;2023-06-10T14:34:37;33.50;68.20
67750;DHT22;54550;48.838;8.828;2023-06-10T14:37:04;33.30;68.90
67750;DHT22;54550;48.838;8.828;2023-06-10T14:39:32;33.00;69.30
67750;DHT22;54550;48.838;8.828;2023-06-10T14:41:58;33.50;69.50
67750;DHT22;54550;48.838;8.828;2023-06-10T14:44:23;33.50;67.70
67750;DHT22;54550;48.838;8.828;2023-06-10T14:46:49;32.80;68.70
67750;DHT22;54550;48.838;8.828;2023-06-10T14:49:14;32.40;70.50
67750;DHT22;54550;48.838;8.828;2023-06-10T14:51:40;31.80;70.00
67750;DHT22;54550;48.838;8.828;2023-06-10T14:54:05;30.80;71.80
67750;DHT22;54550;48.838;8.828;2023-06-10T14:56:30;30.00;74.30
67750;DHT22;54550;48.838;8.828;2023-06-10T14:58:56;31.10;73.10
67750;DHT22;54550;48.838;8.828;2023-06-10T15:01:21;32.20;71.70
67750;DHT22;54550;48.838;8.828;2023-06-10T15:03:47;33.20;71.20
67750;DHT22;54550;48.838;8.828;2023-06-10T15:06:12;33.30;69.40
67750;DHT22;54550;48.838;8.828;2023-06-10T15:08:38;33.70;70.00
67750;DHT22;54550;48.838;8.828;2023-06-10T15:11:03;34.40;68.40
67750;DHT22;54550;48.838;8.828;2023-06-10T15:13:29;34.40;68.20
67750;DHT22;54550;48.838;8.828;2023-06-10T15:15:54;33.40;68.60
67750;DHT22;54550;48.838;8.828;2023-06-10T15:18:21;33.60;69.20
67750;DHT22;54550;48.838;8.828;2023-06-10T15:20:46;33.90;68.70
67750;DHT22;54550;48.838;8.828;2023-06-10T15:23:12;33.80;67.50
67750;DHT22;54550;48.838;8.828;2023-06-10T15:25:37;34.10;67.40
67750;DHT22;54550;48.838;8.828;2023-06-10T15:28:05;33.40;67.40
67750;DHT22;54550;48.838;8.828;2023-06-10T15:30:31;33.30;68.80
67750;DHT22;54550;48.838;8.828;2023-06-10T15:32:57;33.50;69.00
67750;DHT22;54550;48.838;8.828;2023-06-10T15:35:23;33.40;68.70
67750;DHT22;54550;48.838;8.828;2023-06-10T15:37:48;33.90;70.00
67750;DHT22;54550;48.838;8.828;2023-06-10T15:40:13;34.30;68.20
67750;DHT22;54550;48.838;8.828;2023-06-10T15:42:39;34.50;67.60
67750;DHT22;54550;48.838;8.828;2023-06-10T15:45:05;34.10;67.80